createdAt,value
2022-10-01T00:00:05.223Z,89.78
2022-10-01T00:02:31.616Z,89.02
2022-10-01T00:04:58.140Z,87.76
2022-10-01T00:07:24.530Z,87.60
2022-10-01T00:09:50.890Z,89.12
2022-10-01T00:12:17.236Z,89.95
2022-10-01T00:14:44.444Z,89.33
2022-10-01T00:17:10.779Z,89.60
2022-10-01T00:19:37.131Z,90.24
2022-10-01T00:22:03.608Z,90.86
2022-10-01T00:24:30.008Z,89.31
2022-10-01T00:26:57.646Z,90.75
2022-10-01T00:29:24.190Z,91.07
2022-10-01T00:31:50.666Z,89.54
2022-10-01T00:34:17.099Z,90.71
2022-10-01T00:36:43.499Z,89.84
2022-10-01T00:39:11.853Z,91.33
2022-10-01T00:41:38.441Z,90.08
2022-10-01T00:44:36.475Z,90.03
2022-10-01T00:47:35.736Z,89.45
2022-10-01T00:50:26.341Z,90.78
2022-10-01T00:52:59.221Z,90.32
2022-10-01T00:55:38.019Z,90.32
2022-10-01T00:58:05.147Z,92.24
2022-10-01T01:00:31.971Z,91.60
2022-10-01T01:02:58.337Z,88.75
2022-10-01T01:05:24.740Z,91.81
2022-10-01T01:07:53.355Z,90.18
2022-10-01T01:10:30.099Z,90.91
2022-10-01T01:12:56.382Z,90.98
2022-10-01T01:15:46.488Z,91.21
2022-10-01T01:18:46.255Z,91.06
2022-10-01T01:21:24.682Z,91.13
2022-10-01T01:24:09.793Z,90.49
2022-10-01T01:27:02.224Z,91.61
2022-10-01T01:29:52.939Z,91.93
2022-10-01T01:32:27.772Z,92.78
2022-10-01T01:34:57.711Z,91.78
2022-10-01T01:37:28.071Z,92.47
2022-10-01T01:39:58.358Z,92.37
2022-10-01T01:42:32.909Z,93.66
2022-10-01T01:45:03.800Z,93.29
2022-10-01T01:47:32.840Z,94.09
2022-10-01T01:50:02.824Z,94.16
2022-10-01T01:52:29.696Z,93.82
2022-10-01T01:54:57.424Z,94.55
2022-10-01T01:57:24.019Z,93.79
2022-10-01T01:59:50.426Z,96.21
2022-10-01T02:02:25.780Z,95.59
2022-10-01T02:05:25.145Z,96.01
2022-10-01T02:08:16.404Z,96.02
2022-10-01T02:11:03.786Z,95.03
2022-10-01T02:14:00.039Z,95.54
2022-10-01T02:16:48.898Z,95.29
2022-10-01T02:19:23.827Z,94.49
2022-10-01T02:22:02.990Z,94.41
2022-10-01T02:24:47.505Z,95.26
2022-10-01T02:27:29.216Z,94.86
2022-10-01T02:29:59.054Z,95.05
2022-10-01T02:32:28.057Z,94.44
2022-10-01T02:34:54.919Z,94.31
2022-10-01T02:37:24.224Z,96.17
2022-10-01T02:39:53.091Z,96.51
2022-10-01T02:42:21.517Z,96.14
2022-10-01T02:44:51.100Z,96.96
2022-10-01T02:47:23.302Z,96.65
2022-10-01T02:49:50.701Z,99.05
2022-10-01T02:52:34.155Z,99.68
2022-10-01T02:55:05.311Z,99.49
2022-10-01T02:57:32.817Z,100.00
2022-10-01T03:00:01.931Z,100.00
2022-10-01T03:02:31.313Z,100.00
2022-10-01T03:04:58.359Z,100.00
2022-10-01T03:07:27.591Z,100.00
2022-10-01T03:09:53.993Z,100.00
2022-10-01T03:12:20.431Z,100.00
2022-10-01T03:14:47.548Z,100.00
2022-10-01T03:17:15.078Z,100.00
2022-10-01T03:19:42.462Z,100.00
2022-10-01T03:22:12.239Z,100.00
2022-10-01T03:24:38.594Z,100.00
2022-10-01T03:27:05.250Z,100.00
2022-10-01T03:29:31.613Z,100.00
2022-10-01T03:31:57.971Z,100.00
2022-10-01T03:34:24.375Z,100.00
2022-10-01T03:36:52.695Z,100.00
2022-10-01T03:39:19.471Z,100.00
2022-10-01T03:41:46.010Z,100.00
2022-10-01T03:44:12.420Z,100.00
2022-10-01T03:46:38.783Z,100.00
2022-10-01T03:49:05.248Z,100.00
2022-10-01T03:51:32.355Z,100.00
2022-10-01T03:53:59.596Z,100.00
2022-10-01T03:56:26.107Z,100.00
2022-10-01T03:58:52.479Z,100.00
2022-10-01T04:01:18.988Z,100.00
2022-10-01T04:03:45.360Z,100.00
2022-10-01T04:06:12.346Z,100.00
2022-10-01T04:08:39.161Z,100.00
2022-10-01T04:11:06.817Z,100.00
2022-10-01T04:13:34.559Z,100.00
2022-10-01T04:16:05.388Z,100.00
2022-10-01T04:18:32.150Z,100.00
2022-10-01T04:20:58.529Z,100.00
2022-10-01T04:23:25.872Z,100.00
2022-10-01T04:25:52.499Z,100.00
2022-10-01T04:28:19.225Z,100.00
2022-10-01T04:30:46.674Z,100.00
2022-10-01T04:33:15.859Z,100.00
2022-10-01T04:35:45.918Z,100.00
2022-10-01T04:38:15.762Z,100.00
2022-10-01T04:40:42.209Z,100.00
2022-10-01T04:43:09.694Z,100.00
2022-10-01T04:45:37.269Z,100.00
2022-10-01T04:48:04.972Z,100.00
2022-10-01T04:50:31.949Z,100.00
2022-10-01T04:52:58.346Z,100.00
2022-10-01T04:55:24.898Z,100.00
2022-10-01T04:57:51.328Z,100.00
2022-10-01T05:00:21.721Z,100.00
2022-10-01T05:02:49.498Z,100.00
2022-10-01T05:05:17.597Z,100.00
2022-10-01T05:07:44.419Z,100.00
2022-10-01T05:10:14.610Z,100.00
2022-10-01T05:12:41.573Z,100.00
2022-10-01T05:15:08.611Z,100.00
2022-10-01T05:17:35.945Z,100.00
2022-10-01T05:20:03.778Z,100.00
2022-10-01T05:22:30.233Z,100.00
2022-10-01T05:24:59.026Z,100.00
2022-10-01T05:27:30.382Z,100.00
2022-10-01T05:29:57.110Z,100.00
2022-10-01T05:32:23.521Z,100.00
2022-10-01T05:34:53.421Z,100.00
2022-10-01T05:37:20.620Z,100.00
2022-10-01T05:39:47.162Z,100.00
2022-10-01T05:42:13.647Z,100.00
2022-10-01T05:44:45.878Z,100.00
2022-10-01T05:47:16.357Z,100.00
2022-10-01T05:49:44.332Z,100.00
2022-10-01T05:52:12.236Z,100.00
2022-10-01T05:54:38.640Z,100.00
2022-10-01T05:57:06.063Z,100.00
2022-10-01T05:59:32.459Z,100.00
2022-10-01T06:01:59.065Z,100.00
2022-10-01T06:04:25.575Z,100.00
2022-10-01T06:06:54.076Z,100.00
2022-10-01T06:09:20.435Z,100.00
2022-10-01T06:11:48.824Z,100.00
2022-10-01T06:14:16.073Z,100.00
2022-10-01T06:16:42.666Z,100.00
2022-10-01T06:19:09.071Z,100.00
2022-10-01T06:21:36.141Z,100.00
2022-10-01T06:24:02.817Z,100.00
2022-10-01T06:26:29.180Z,100.00
2022-10-01T06:28:55.574Z,100.00
2022-10-01T06:31:22.002Z,100.00
2022-10-01T06:33:48.543Z,100.00
2022-10-01T06:36:14.956Z,100.00
2022-10-01T06:38:42.890Z,100.00
2022-10-01T06:41:10.068Z,100.00
2022-10-01T06:43:36.657Z,100.00
2022-10-01T06:46:04.865Z,100.00
2022-10-01T06:48:32.392Z,100.00
2022-10-01T06:50:59.352Z,100.00
2022-10-01T06:53:27.818Z,100.00
2022-10-01T06:55:54.788Z,100.00
2022-10-01T06:58:23.151Z,100.00
2022-10-01T07:00:50.404Z,100.00
2022-10-01T07:03:20.728Z,100.00
2022-10-01T07:05:48.116Z,100.00
2022-10-01T07:08:15.021Z,100.00
2022-10-01T07:10:42.999Z,100.00
2022-10-01T07:13:17.496Z,100.00
2022-10-01T07:15:44.923Z,100.00
2022-10-01T07:18:12.036Z,100.00
2022-10-01T07:20:40.331Z,100.00
2022-10-01T07:23:10.761Z,100.00
2022-10-01T07:25:38.867Z,100.00
2022-10-01T07:28:07.399Z,100.00
2022-10-01T07:30:34.351Z,100.00
2022-10-01T07:33:00.765Z,100.00
2022-10-01T07:35:27.184Z,100.00
2022-10-01T07:37:55.201Z,100.00
2022-10-01T07:40:21.919Z,100.00
2022-10-01T07:42:56.136Z,100.00
2022-10-01T07:45:23.596Z,100.00
2022-10-01T07:47:54.082Z,100.00
2022-10-01T07:50:20.450Z,100.00
2022-10-01T07:52:51.232Z,100.00
2022-10-01T07:55:17.607Z,100.00
2022-10-01T07:57:43.957Z,100.00
2022-10-01T08:00:11.117Z,100.00
2022-10-01T08:02:37.577Z,100.00
2022-10-01T08:05:20.105Z,100.00
2022-10-01T08:07:47.040Z,100.00
2022-10-01T08:10:15.046Z,100.00
2022-10-01T08:12:44.256Z,100.00
2022-10-01T08:15:15.553Z,100.00
2022-10-01T08:17:42.955Z,100.00
2022-10-01T08:20:11.913Z,100.00
2022-10-01T08:22:41.807Z,100.00
2022-10-01T08:25:09.012Z,100.00
2022-10-01T08:27:35.477Z,100.00
2022-10-01T08:30:01.923Z,100.00
2022-10-01T08:32:28.349Z,100.00
2022-10-01T08:34:59.814Z,100.00
2022-10-01T08:37:27.768Z,100.00
2022-10-01T08:39:55.248Z,100.00
2022-10-01T08:42:36.590Z,100.00
2022-10-01T08:45:11.446Z,100.00
2022-10-01T08:47:41.871Z,100.00
2022-10-01T08:50:19.293Z,100.00
2022-10-01T08:52:57.621Z,100.00
2022-10-01T08:55:28.277Z,100.00
2022-10-01T08:58:00.815Z,100.00
2022-10-01T09:00:29.174Z,100.00
2022-10-01T09:03:00.364Z,100.00
2022-10-01T09:05:38.358Z,100.00
2022-10-01T09:08:54.244Z,100.00
2022-10-01T09:11:45.491Z,100.00
2022-10-01T09:14:28.607Z,100.00
2022-10-01T09:17:00.982Z,100.00
2022-10-01T09:19:58.870Z,100.00
2022-10-01T09:22:38.738Z,100.00
2022-10-01T09:25:23.049Z,100.00
2022-10-01T09:27:52.095Z,100.00
2022-10-01T09:30:21.823Z,100.00
2022-10-01T09:32:55.973Z,100.00
2022-10-01T09:35:45.160Z,100.00
2022-10-01T09:38:23.016Z,100.00
2022-10-01T09:40:55.058Z,100.00
2022-10-01T09:43:28.495Z,100.00
2022-10-01T09:45:55.397Z,100.00
2022-10-01T09:48:36.945Z,100.00
2022-10-01T09:51:42.683Z,100.00
2022-10-01T09:54:19.188Z,100.00
2022-10-01T09:56:50.914Z,100.00
2022-10-01T09:59:28.020Z,100.00
2022-10-01T10:01:59.022Z,100.00
2022-10-01T10:04:25.553Z,100.00
2022-10-01T10:07:00.487Z,100.00
2022-10-01T10:09:32.552Z,100.00
2022-10-01T10:11:59.813Z,100.00
2022-10-01T10:14:36.339Z,100.00
2022-10-01T10:17:12.158Z,100.00
2022-10-01T10:19:40.286Z,100.00
2022-10-01T10:22:24.733Z,100.00
2022-10-01T10:24:53.432Z,100.00
2022-10-01T10:27:29.636Z,100.00
2022-10-01T10:30:13.534Z,100.00
2022-10-01T10:32:41.179Z,100.00
2022-10-01T10:35:15.373Z,100.00
2022-10-01T10:37:48.417Z,100.00
2022-10-01T10:40:20.123Z,100.00
2022-10-01T10:42:51.810Z,100.00
2022-10-01T10:45:41.083Z,100.00
2022-10-01T10:48:16.507Z,100.00
2022-10-01T10:50:46.112Z,100.00
2022-10-01T10:53:24.181Z,100.00
2022-10-01T10:56:17.896Z,100.00
2022-10-01T10:58:45.191Z,100.00
2022-10-01T11:01:20.178Z,100.00
2022-10-01T11:03:49.548Z,100.00
2022-10-01T11:06:20.171Z,100.00
2022-10-01T11:08:57.078Z,100.00
2022-10-01T11:11:59.997Z,100.00
2022-10-01T11:14:36.746Z,100.00
2022-10-01T11:17:40.567Z,100.00
2022-10-01T11:20:21.056Z,100.00
2022-10-01T11:23:03.388Z,100.00
2022-10-01T11:25:41.401Z,100.00
2022-10-01T11:28:49.830Z,100.00
2022-10-01T11:31:16.192Z,100.00
2022-10-01T11:34:10.258Z,100.00
2022-10-01T11:36:55.342Z,100.00
2022-10-01T11:39:25.040Z,100.00
2022-10-01T11:42:09.196Z,100.00
2022-10-01T11:44:48.647Z,100.00
2022-10-01T11:47:31.610Z,100.00
2022-10-01T11:50:05.971Z,100.00
2022-10-01T11:52:39.505Z,100.00
2022-10-01T11:55:54.793Z,100.00
2022-10-01T11:58:51.983Z,100.00
2022-10-01T12:01:24.253Z,100.00
2022-10-01T12:03:53.347Z,100.00
2022-10-01T12:06:33.769Z,100.00
2022-10-01T12:09:16.970Z,100.00
2022-10-01T12:11:54.106Z,100.00
2022-10-01T12:14:24.715Z,100.00
2022-10-01T12:17:00.717Z,100.00
2022-10-01T12:19:33.298Z,100.00
2022-10-01T12:22:10.505Z,100.00
2022-10-01T12:24:42.360Z,100.00
2022-10-01T12:27:20.056Z,100.00
2022-10-01T12:30:02.547Z,100.00
2022-10-01T12:32:34.880Z,100.00
2022-10-01T12:35:02.279Z,100.00
2022-10-01T12:37:40.828Z,100.00
2022-10-01T12:40:30.858Z,100.00
2022-10-01T12:43:04.246Z,100.00
2022-10-01T12:45:36.776Z,100.00
2022-10-01T12:48:23.343Z,100.00
2022-10-01T12:51:28.238Z,100.00
2022-10-01T12:54:21.110Z,100.00
2022-10-01T12:57:26.256Z,100.00
2022-10-01T13:00:07.856Z,100.00
2022-10-01T13:03:04.752Z,100.00
2022-10-01T13:05:47.479Z,100.00
2022-10-01T13:08:16.543Z,100.00
2022-10-01T13:11:07.970Z,100.00
2022-10-01T13:13:34.658Z,100.00
2022-10-01T13:16:20.711Z,100.00
2022-10-01T13:19:10.518Z,100.00
2022-10-01T13:21:58.287Z,100.00
2022-10-01T13:24:33.387Z,100.00
2022-10-01T13:27:07.324Z,100.00
2022-10-01T13:30:04.043Z,100.00
2022-10-01T13:32:51.219Z,100.00
2022-10-01T13:35:35.841Z,99.68
2022-10-01T13:38:29.153Z,99.13
2022-10-01T13:41:01.696Z,100.00
2022-10-01T13:43:30.265Z,97.19
2022-10-01T13:46:07.166Z,95.63
2022-10-01T13:48:35.386Z,94.11
2022-10-01T13:51:13.260Z,93.18
2022-10-01T13:53:42.576Z,96.38
2022-10-01T13:56:15.285Z,96.18
2022-10-01T13:58:46.262Z,95.45
2022-10-01T14:01:24.298Z,93.22
2022-10-01T14:04:13.212Z,92.95
2022-10-01T14:06:47.097Z,95.31
2022-10-01T14:09:34.929Z,98.96
2022-10-01T14:12:43.451Z,96.78
2022-10-01T14:15:40.406Z,95.87
2022-10-01T14:18:16.415Z,97.77
2022-10-01T14:20:58.114Z,95.98
2022-10-01T14:23:34.564Z,94.88
2022-10-01T14:26:17.067Z,96.47
2022-10-01T14:29:02.141Z,95.79
2022-10-01T14:31:40.695Z,93.85
2022-10-01T14:34:22.751Z,97.01
2022-10-01T14:36:51.811Z,99.18
2022-10-01T14:39:26.767Z,95.75
2022-10-01T14:41:55.342Z,97.08
2022-10-01T14:44:28.777Z,94.69
2022-10-01T14:46:57.930Z,95.61
2022-10-01T14:49:31.633Z,93.98
2022-10-01T14:52:04.293Z,92.90
2022-10-01T14:54:53.432Z,91.83
2022-10-01T14:57:28.001Z,93.54
2022-10-01T14:59:57.944Z,91.63
2022-10-01T15:02:26.333Z,93.34
2022-10-01T15:04:56.414Z,93.54
2022-10-01T15:07:25.366Z,96.19
2022-10-01T15:09:51.840Z,96.60
2022-10-01T15:12:21.482Z,97.18
2022-10-01T15:14:53.952Z,95.04
2022-10-01T15:17:25.129Z,94.20
2022-10-01T15:19:54.468Z,98.10
2022-10-01T15:22:28.575Z,95.54
2022-10-01T15:25:00.821Z,95.67
2022-10-01T15:27:27.475Z,95.35
2022-10-01T15:29:57.110Z,96.01
2022-10-01T15:32:25.116Z,95.33
2022-10-01T15:35:00.956Z,94.26
2022-10-01T15:37:31.680Z,97.27
2022-10-01T15:40:00.521Z,97.51
2022-10-01T15:42:31.493Z,97.05
2022-10-01T15:45:06.718Z,95.50
2022-10-01T15:47:40.470Z,97.20
2022-10-01T15:50:09.585Z,97.06
2022-10-01T15:52:54.420Z,98.45
2022-10-01T15:55:22.602Z,100.00
2022-10-01T15:58:21.290Z,100.00
2022-10-01T16:00:47.666Z,99.77
2022-10-01T16:03:24.077Z,98.76
2022-10-01T16:05:54.802Z,97.65
2022-10-01T16:08:24.374Z,100.00
2022-10-01T16:11:15.939Z,97.67
2022-10-01T16:13:45.059Z,99.17
2022-10-01T16:16:15.046Z,98.91
2022-10-01T16:18:42.748Z,98.64
2022-10-01T16:21:11.135Z,100.00
2022-10-01T16:23:44.474Z,100.00
2022-10-01T16:26:33.887Z,100.00
2022-10-01T16:29:04.147Z,100.00
2022-10-01T16:31:30.894Z,100.00
2022-10-01T16:33:57.680Z,100.00
2022-10-01T16:36:26.144Z,100.00
2022-10-01T16:38:52.516Z,100.00
2022-10-01T16:41:26.050Z,100.00
2022-10-01T16:43:55.087Z,100.00
2022-10-01T16:46:21.837Z,100.00
2022-10-01T16:48:51.330Z,100.00
2022-10-01T16:51:19.199Z,100.00
2022-10-01T16:53:46.912Z,100.00
2022-10-01T16:56:14.166Z,100.00
2022-10-01T16:58:42.998Z,100.00
2022-10-01T17:01:13.013Z,100.00
2022-10-01T17:03:39.718Z,100.00
2022-10-01T17:06:06.518Z,100.00
2022-10-01T17:08:32.899Z,100.00
2022-10-01T17:11:01.952Z,100.00
2022-10-01T17:13:32.589Z,100.00
2022-10-01T17:15:59.810Z,100.00
2022-10-01T17:18:26.269Z,100.00
2022-10-01T17:20:52.628Z,100.00
2022-10-01T17:23:22.170Z,100.00
2022-10-01T17:25:49.361Z,100.00
2022-10-01T17:28:17.883Z,100.00
2022-10-01T17:30:49.154Z,100.00
2022-10-01T17:33:19.068Z,100.00
2022-10-01T17:35:51.401Z,100.00
2022-10-01T17:38:19.053Z,100.00
2022-10-01T17:40:45.468Z,100.00
2022-10-01T17:43:13.707Z,100.00
2022-10-01T17:45:40.584Z,100.00
2022-10-01T17:48:07.513Z,100.00
2022-10-01T17:50:34.136Z,100.00
2022-10-01T17:53:01.495Z,100.00
2022-10-01T17:55:28.263Z,100.00
2022-10-01T17:57:54.660Z,100.00
2022-10-01T18:00:21.065Z,100.00
2022-10-01T18:02:47.437Z,100.00
2022-10-01T18:05:14.651Z,100.00
2022-10-01T18:07:42.302Z,100.00
2022-10-01T18:10:12.021Z,100.00
2022-10-01T18:12:38.713Z,100.00
2022-10-01T18:15:05.773Z,100.00
2022-10-01T18:17:33.199Z,100.00
2022-10-01T18:19:59.781Z,100.00
2022-10-01T18:22:27.192Z,100.00
2022-10-01T18:24:53.566Z,100.00
2022-10-01T18:27:19.976Z,100.00
2022-10-01T18:29:46.373Z,100.00
2022-10-01T18:32:13.057Z,100.00
2022-10-01T18:34:52.088Z,100.00
2022-10-01T18:37:45.653Z,100.00
2022-10-01T18:40:19.971Z,100.00
2022-10-01T18:43:13.817Z,100.00
2022-10-01T18:46:00.458Z,100.00
2022-10-01T18:49:01.037Z,100.00
2022-10-01T18:51:57.471Z,100.00
2022-10-01T18:54:34.431Z,100.00
2022-10-01T18:57:18.684Z,100.00
2022-10-01T18:59:54.938Z,100.00
2022-10-01T19:02:41.156Z,100.00
2022-10-01T19:05:34.593Z,100.00
2022-10-01T19:08:38.744Z,100.00
2022-10-01T19:11:18.124Z,100.00
2022-10-01T19:13:58.407Z,100.00
2022-10-01T19:16:39.790Z,100.00
2022-10-01T19:19:41.403Z,100.00
2022-10-01T19:22:36.919Z,100.00
2022-10-01T19:25:20.113Z,100.00
2022-10-01T19:28:08.051Z,100.00
2022-10-01T19:30:48.642Z,100.00
2022-10-01T19:33:19.014Z,100.00
2022-10-01T19:35:51.567Z,100.00
2022-10-01T19:38:27.686Z,100.00
2022-10-01T19:41:03.149Z,100.00
2022-10-01T19:43:39.057Z,100.00
2022-10-01T19:46:15.131Z,100.00
2022-10-01T19:48:56.993Z,100.00
2022-10-01T19:51:29.283Z,100.00
2022-10-01T19:54:01.380Z,100.00
2022-10-01T19:56:30.736Z,100.00
2022-10-01T19:59:19.792Z,100.00
2022-10-01T20:02:01.405Z,100.00
2022-10-01T20:04:38.042Z,100.00
2022-10-01T20:07:21.473Z,100.00
2022-10-01T20:10:01.665Z,100.00
2022-10-01T20:12:47.077Z,100.00
2022-10-01T20:15:39.812Z,100.00
2022-10-01T20:18:27.987Z,100.00
2022-10-01T20:21:22.823Z,100.00
2022-10-01T20:24:01.006Z,100.00
2022-10-01T20:26:43.151Z,100.00
2022-10-01T20:29:12.444Z,100.00
2022-10-01T20:31:55.041Z,100.00
2022-10-01T20:34:57.196Z,100.00
2022-10-01T20:37:39.837Z,100.00
2022-10-01T20:40:17.884Z,100.00
2022-10-01T20:42:49.798Z,100.00
2022-10-01T20:45:21.734Z,100.00
2022-10-01T20:47:57.961Z,100.00
2022-10-01T20:50:37.304Z,100.00
2022-10-01T20:53:45.797Z,100.00
2022-10-01T20:56:17.281Z,100.00
2022-10-01T20:58:52.544Z,100.00
2022-10-01T21:01:25.174Z,100.00
2022-10-01T21:19:19.538Z,100.00
2022-10-01T21:26:05.130Z,100.00
2022-10-01T21:29:24.253Z,100.00
2022-10-01T21:32:07.439Z,100.00
2022-10-01T21:35:01.807Z,100.00
2022-10-01T21:37:45.335Z,100.00
2022-10-01T21:40:27.787Z,100.00
2022-10-01T21:43:01.429Z,100.00
2022-10-01T21:45:43.212Z,100.00
2022-10-01T21:48:49.034Z,100.00
2022-10-01T21:51:31.573Z,100.00
2022-10-01T21:54:34.780Z,100.00
2022-10-01T21:57:35.793Z,100.00
2022-10-01T22:00:16.653Z,100.00
2022-10-01T22:02:51.810Z,100.00
2022-10-01T22:05:52.227Z,100.00
2022-10-01T22:08:24.672Z,100.00
2022-10-01T22:10:54.350Z,100.00
2022-10-01T22:13:25.127Z,100.00
2022-10-01T22:15:55.059Z,100.00
2022-10-01T22:18:57.658Z,100.00
2022-10-01T22:21:31.106Z,100.00
2022-10-01T22:24:08.510Z,100.00
2022-10-01T22:26:40.519Z,100.00
2022-10-01T22:29:14.554Z,100.00
2022-10-01T22:31:43.036Z,100.00
2022-10-01T22:34:14.853Z,100.00
2022-10-01T22:36:56.981Z,100.00
2022-10-01T22:39:26.108Z,100.00
2022-10-01T22:42:20.804Z,100.00
2022-10-01T22:44:47.868Z,100.00
2022-10-01T22:47:31.189Z,100.00
2022-10-01T22:50:03.295Z,100.00
2022-10-01T22:52:40.343Z,100.00
2022-10-01T22:55:53.011Z,100.00
2022-10-01T22:58:27.596Z,100.00
2022-10-01T23:01:27.898Z,100.00
2022-10-01T23:07:53.282Z,100.00
2022-10-01T23:10:32.900Z,100.00
2022-10-01T23:13:25.900Z,100.00
2022-10-01T23:16:08.509Z,100.00
2022-10-01T23:18:54.961Z,100.00
2022-10-01T23:21:41.453Z,100.00
2022-10-01T23:24:07.743Z,100.00
2022-10-01T23:26:40.274Z,100.00
2022-10-01T23:29:27.522Z,100.00
2022-10-01T23:32:03.000Z,100.00
2022-10-01T23:34:45.544Z,100.00
2022-10-01T23:37:50.237Z,100.00
2022-10-01T23:40:20.752Z,100.00
2022-10-01T23:43:16.219Z,100.00
2022-10-01T23:45:56.563Z,100.00
2022-10-01T23:48:35.007Z,100.00
2022-10-01T23:51:16.532Z,100.00
2022-10-01T23:53:45.946Z,100.00
2022-10-01T23:56:48.015Z,100.00
2022-10-01T23:59:52.305Z,100.00
